createdAt,value
2022-08-27T00:00:50.708Z,70.32
2022-08-27T00:03:18.213Z,67.77
2022-08-27T00:05:45.016Z,69.46
2022-08-27T00:08:13.149Z,67.43
2022-08-27T00:10:41.077Z,68.87
2022-08-27T00:13:08.314Z,69.90
2022-08-27T00:15:35.832Z,70.13
2022-08-27T00:18:02.371Z,69.78
2022-08-27T00:20:28.985Z,68.24
2022-08-27T00:22:55.953Z,68.29
2022-08-27T00:25:23.424Z,68.59
2022-08-27T00:27:50.509Z,71.18
2022-08-27T00:30:20.034Z,70.43
2022-08-27T00:32:47.012Z,69.10
2022-08-27T00:35:15.979Z,69.32
2022-08-27T00:37:43.770Z,67.61
2022-08-27T00:40:14.564Z,68.67
2022-08-27T00:42:42.584Z,68.34
2022-08-27T00:45:10.199Z,69.24
2022-08-27T00:47:43.454Z,68.38
2022-08-27T00:50:20.780Z,69.01
2022-08-27T00:52:54.485Z,69.67
2022-08-27T00:55:25.925Z,69.22
2022-08-27T00:58:29.798Z,71.42
2022-08-27T01:00:57.838Z,70.27
2022-08-27T01:03:26.504Z,69.03
2022-08-27T01:05:56.687Z,68.00
2022-08-27T01:08:26.344Z,67.99
2022-08-27T01:10:55.019Z,68.92
2022-08-27T01:13:54.478Z,70.92
2022-08-27T01:16:17.268Z,69.46
2022-08-27T01:18:44.664Z,70.61
2022-08-27T01:21:11.468Z,71.66
2022-08-27T01:23:44.565Z,68.50
2022-08-27T01:26:14.558Z,69.11
2022-08-27T01:28:42.316Z,69.28
2022-08-27T01:31:11.685Z,69.10
2022-08-27T01:33:39.054Z,69.53
2022-08-27T01:36:06.828Z,68.75
2022-08-27T01:38:33.703Z,69.24
2022-08-27T01:41:01.860Z,71.32
2022-08-27T01:43:31.267Z,71.66
2022-08-27T01:45:58.211Z,71.12
2022-08-27T01:48:24.844Z,69.44
2022-08-27T01:50:51.814Z,71.04
2022-08-27T01:53:22.306Z,72.10
2022-08-27T01:55:50.428Z,72.08
2022-08-27T01:58:18.632Z,72.31
2022-08-27T02:00:48.677Z,70.84
2022-08-27T02:03:20.935Z,71.25
2022-08-27T02:05:48.469Z,70.90
2022-08-27T02:08:17.871Z,71.00
2022-08-27T02:10:46.340Z,71.75
2022-08-27T02:13:13.344Z,71.69
2022-08-27T02:15:41.545Z,68.78
2022-08-27T02:18:09.755Z,69.20
2022-08-27T02:20:37.141Z,66.46
2022-08-27T02:23:04.820Z,67.44
2022-08-27T02:25:31.688Z,66.78
2022-08-27T02:28:02.434Z,66.06
2022-08-27T02:30:32.001Z,66.65
2022-08-27T02:33:00.950Z,66.32
2022-08-27T02:35:28.762Z,65.77
2022-08-27T02:37:55.605Z,65.77
2022-08-27T02:40:23.924Z,66.31
2022-08-27T02:42:51.146Z,67.67
2022-08-27T02:45:18.261Z,68.34
2022-08-27T02:47:45.009Z,68.62
2022-08-27T02:50:13.502Z,69.33
2022-08-27T02:52:40.563Z,69.81
2022-08-27T02:55:07.508Z,69.10
2022-08-27T02:57:36.390Z,71.00
2022-08-27T03:00:07.040Z,69.36
2022-08-27T03:02:33.764Z,71.80
2022-08-27T03:05:00.498Z,70.57
2022-08-27T03:07:27.223Z,70.18
2022-08-27T03:09:53.820Z,70.02
2022-08-27T03:12:20.437Z,67.93
2022-08-27T03:14:49.673Z,68.14
2022-08-27T03:17:34.850Z,67.35
2022-08-27T03:20:02.252Z,68.18
2022-08-27T03:22:29.213Z,67.23
2022-08-27T03:24:56.382Z,68.47
2022-08-27T03:27:25.767Z,68.34
2022-08-27T03:29:52.368Z,68.75
2022-08-27T03:32:18.937Z,68.44
2022-08-27T03:34:45.573Z,69.82
2022-08-27T03:37:12.135Z,69.25
2022-08-27T03:39:38.701Z,70.26
2022-08-27T03:42:05.676Z,71.01
2022-08-27T03:44:32.982Z,71.43
2022-08-27T03:47:00.885Z,70.04
2022-08-27T03:49:27.956Z,69.77
2022-08-27T03:51:54.619Z,70.17
2022-08-27T03:54:21.395Z,69.08
2022-08-27T03:56:48.245Z,69.21
2022-08-27T03:59:15.783Z,69.26
2022-08-27T04:01:43.257Z,69.61
2022-08-27T04:04:10.330Z,70.38
2022-08-27T04:06:37.083Z,68.75
2022-08-27T04:09:04.606Z,69.68
2022-08-27T04:11:34.461Z,68.91
2022-08-27T04:14:04.474Z,69.56
2022-08-27T04:16:48.173Z,70.81
2022-08-27T04:19:17.384Z,71.74
2022-08-27T04:21:44.012Z,71.57
2022-08-27T04:24:11.941Z,70.22
2022-08-27T04:26:42.558Z,71.45
2022-08-27T04:29:09.160Z,70.81
2022-08-27T04:31:35.741Z,69.86
2022-08-27T04:34:02.573Z,71.20
2022-08-27T04:36:29.171Z,70.67
2022-08-27T04:38:55.728Z,70.58
2022-08-27T04:41:23.220Z,70.49
2022-08-27T04:43:53.438Z,70.00
2022-08-27T04:46:26.038Z,69.41
2022-08-27T04:48:53.376Z,69.35
2022-08-27T04:51:20.914Z,69.11
2022-08-27T04:53:49.862Z,68.85
2022-08-27T04:56:19.971Z,68.16
2022-08-27T04:58:46.554Z,68.72
2022-08-27T05:01:24.174Z,68.90
2022-08-27T05:03:51.598Z,67.90
2022-08-27T05:06:19.021Z,67.03
2022-08-27T05:08:46.085Z,67.79
2022-08-27T05:11:15.576Z,66.44
2022-08-27T05:13:43.447Z,66.14
2022-08-27T05:16:18.630Z,67.10
2022-08-27T05:18:48.081Z,67.02
2022-08-27T05:21:24.380Z,66.13
2022-08-27T05:23:52.426Z,66.27
2022-08-27T05:26:19.373Z,66.55
2022-08-27T05:28:46.292Z,66.83
2022-08-27T05:31:15.044Z,67.12
2022-08-27T05:33:43.274Z,66.81
2022-08-27T05:36:20.578Z,66.64
2022-08-27T05:38:51.557Z,65.23
2022-08-27T05:41:25.489Z,63.60
2022-08-27T05:44:01.412Z,61.30
2022-08-27T05:46:29.391Z,60.85
2022-08-27T05:49:02.042Z,59.51
2022-08-27T05:51:33.397Z,57.09
2022-08-27T05:54:08.452Z,58.38
2022-08-27T05:56:37.537Z,57.42
2022-08-27T05:59:23.285Z,56.47
2022-08-27T06:01:52.545Z,58.64
2022-08-27T06:04:20.621Z,56.41
2022-08-27T06:06:47.619Z,55.12
2022-08-27T06:09:19.070Z,56.90
2022-08-27T06:11:46.468Z,57.83
2022-08-27T06:14:13.177Z,57.58
2022-08-27T06:16:40.616Z,55.46
2022-08-27T06:19:08.974Z,58.06
2022-08-27T06:21:36.980Z,51.27
2022-08-27T06:24:03.791Z,52.12
2022-08-27T06:26:30.492Z,54.00
2022-08-27T06:29:01.614Z,57.80
2022-08-27T06:31:28.275Z,50.66
2022-08-27T06:34:03.108Z,48.81
2022-08-27T06:36:36.550Z,56.86
2022-08-27T06:39:03.995Z,56.96
2022-08-27T06:41:31.725Z,56.64
2022-08-27T06:43:58.481Z,54.88
2022-08-27T06:46:27.942Z,57.32
2022-08-27T06:48:56.995Z,57.35
2022-08-27T06:51:27.288Z,57.89
2022-08-27T06:53:56.682Z,56.39
2022-08-27T06:56:23.436Z,55.34
2022-08-27T06:58:55.496Z,53.54
2022-08-27T07:01:28.184Z,56.63
2022-08-27T07:03:59.547Z,55.64
2022-08-27T07:06:29.095Z,56.25
2022-08-27T07:08:57.042Z,56.46
2022-08-27T07:11:24.377Z,55.83
2022-08-27T07:13:51.454Z,51.98
2022-08-27T07:16:23.168Z,52.60
2022-08-27T07:18:55.709Z,51.51
2022-08-27T07:21:23.338Z,50.19
2022-08-27T07:23:52.564Z,48.77
2022-08-27T07:26:21.922Z,50.58
2022-08-27T07:28:50.345Z,55.49
2022-08-27T07:31:19.598Z,50.82
2022-08-27T07:33:52.393Z,51.19
2022-08-27T07:36:21.336Z,53.41
2022-08-27T07:39:01.013Z,52.43
2022-08-27T07:41:31.163Z,50.20
2022-08-27T07:44:20.585Z,51.25
2022-08-27T07:46:49.344Z,53.66
2022-08-27T07:49:20.262Z,52.05
2022-08-27T07:51:47.163Z,48.61
2022-08-27T07:54:14.992Z,50.28
2022-08-27T07:56:41.755Z,50.99
2022-08-27T07:59:09.005Z,47.41
2022-08-27T08:01:36.867Z,50.38
2022-08-27T08:04:03.846Z,48.61
2022-08-27T08:06:30.642Z,48.88
2022-08-27T08:08:59.977Z,47.34
2022-08-27T08:11:26.764Z,48.87
2022-08-27T08:13:53.341Z,38.41
2022-08-27T08:16:20.900Z,46.37
2022-08-27T08:18:47.536Z,48.18
2022-08-27T08:21:15.028Z,40.07
2022-08-27T08:23:42.988Z,40.08
2022-08-27T08:26:11.205Z,36.79
2022-08-27T08:28:38.557Z,37.51
2022-08-27T08:31:06.108Z,36.13
2022-08-27T08:33:33.854Z,40.93
2022-08-27T08:36:09.863Z,36.20
2022-08-27T08:38:37.828Z,41.74
2022-08-27T08:41:06.500Z,41.96
2022-08-27T08:43:35.813Z,43.34
2022-08-27T08:46:18.676Z,43.32
2022-08-27T08:48:51.252Z,44.00
2022-08-27T08:51:29.862Z,44.33
2022-08-27T08:54:03.543Z,44.67
2022-08-27T08:56:59.727Z,46.09
2022-08-27T08:59:31.690Z,46.58
2022-08-27T09:01:58.742Z,46.79
2022-08-27T09:04:29.401Z,47.55
2022-08-27T09:07:08.543Z,46.71
2022-08-27T09:09:37.551Z,46.88
2022-08-27T09:12:15.731Z,47.14
2022-08-27T09:15:05.054Z,48.17
2022-08-27T09:17:31.797Z,51.29
2022-08-27T09:19:58.439Z,53.90
2022-08-27T09:22:38.384Z,52.63
2022-08-27T09:25:20.900Z,52.77
2022-08-27T09:27:49.536Z,54.17
2022-08-27T09:30:32.255Z,55.34
2022-08-27T09:33:04.529Z,55.95
2022-08-27T09:35:46.477Z,58.15
2022-08-27T09:38:28.409Z,60.70
2022-08-27T09:40:59.454Z,62.81
2022-08-27T09:43:28.440Z,64.28
2022-08-27T09:45:58.409Z,63.39
2022-08-27T09:48:34.065Z,68.59
2022-08-27T09:51:12.846Z,69.20
2022-08-27T09:53:50.479Z,72.51
2022-08-27T09:56:28.368Z,75.71
2022-08-27T09:59:08.245Z,79.78
2022-08-27T10:01:48.940Z,79.75
2022-08-27T10:04:23.699Z,81.73
2022-08-27T10:06:51.889Z,75.69
2022-08-27T10:09:26.744Z,78.90
2022-08-27T10:12:17.628Z,85.53
2022-08-27T10:14:51.285Z,79.82
2022-08-27T10:17:29.577Z,83.41
2022-08-27T10:20:04.092Z,82.43
2022-08-27T10:23:12.665Z,85.48
2022-08-27T10:26:01.087Z,86.37
2022-08-27T10:28:39.752Z,84.55
2022-08-27T10:31:16.324Z,81.37
2022-08-27T10:33:55.379Z,81.76
2022-08-27T10:36:48.978Z,81.60
2022-08-27T10:39:33.832Z,79.69
2022-08-27T10:42:18.665Z,80.29
2022-08-27T10:45:07.605Z,77.45
2022-08-27T10:47:58.292Z,77.39
2022-08-27T10:50:45.311Z,78.13
2022-08-27T10:53:27.168Z,76.45
2022-08-27T10:56:14.012Z,74.42
2022-08-27T10:59:01.412Z,76.65
2022-08-27T11:01:33.928Z,77.14
2022-08-27T11:04:18.545Z,80.84
2022-08-27T11:06:57.890Z,81.40
2022-08-27T11:09:57.271Z,82.05
2022-08-27T11:12:33.219Z,82.42
2022-08-27T11:15:15.884Z,83.81
2022-08-27T11:17:51.527Z,88.96
2022-08-27T11:20:44.163Z,89.62
2022-08-27T11:23:16.757Z,92.67
2022-08-27T11:26:03.922Z,96.37
2022-08-27T11:28:42.003Z,98.21
2022-08-27T11:31:23.983Z,96.92
2022-08-27T11:34:12.270Z,100.00
2022-08-27T11:37:02.678Z,99.74
2022-08-27T11:39:52.041Z,100.00
2022-08-27T11:42:42.026Z,100.00
2022-08-27T11:45:28.578Z,98.41
2022-08-27T11:48:01.169Z,96.73
2022-08-27T11:50:30.893Z,97.55
2022-08-27T11:53:08.471Z,96.39
2022-08-27T11:55:39.294Z,95.88
2022-08-27T11:58:17.982Z,97.37
2022-08-27T12:00:46.198Z,95.84
2022-08-27T12:03:18.818Z,95.14
2022-08-27T12:05:54.143Z,96.27
2022-08-27T12:08:24.252Z,96.81
2022-08-27T12:11:19.121Z,98.03
2022-08-27T12:14:00.920Z,99.15
2022-08-27T12:16:36.557Z,100.00
2022-08-27T12:19:15.250Z,99.85
2022-08-27T12:22:00.107Z,100.00
2022-08-27T12:24:48.723Z,100.00
2022-08-27T12:27:24.622Z,100.00
2022-08-27T12:30:26.948Z,99.84
2022-08-27T12:32:54.421Z,99.72
2022-08-27T12:35:23.425Z,100.00
2022-08-27T12:38:14.717Z,100.00
2022-08-27T12:41:09.245Z,100.00
2022-08-27T12:43:43.905Z,100.00
2022-08-27T12:46:19.290Z,100.00
2022-08-27T12:48:57.009Z,100.00
2022-08-27T12:51:41.886Z,99.90
2022-08-27T12:54:08.466Z,100.00
2022-08-27T12:56:34.973Z,100.00
2022-08-27T12:59:17.029Z,97.77
2022-08-27T13:02:01.966Z,98.59
2022-08-27T13:04:33.742Z,100.00
2022-08-27T13:07:00.344Z,100.00
2022-08-27T13:09:38.501Z,98.96
2022-08-27T13:12:17.764Z,100.00
2022-08-27T13:14:52.195Z,97.43
2022-08-27T13:17:24.023Z,95.33
2022-08-27T13:20:00.724Z,92.01
2022-08-27T13:22:31.816Z,93.57
2022-08-27T13:25:02.926Z,93.99
2022-08-27T13:27:35.962Z,94.98
2022-08-27T13:30:11.874Z,91.06
2022-08-27T13:32:50.595Z,89.34
2022-08-27T13:35:20.337Z,91.50
2022-08-27T13:37:53.492Z,88.90
2022-08-27T13:40:32.463Z,91.54
2022-08-27T13:43:03.713Z,89.14
2022-08-27T13:45:31.157Z,85.65
2022-08-27T13:47:59.673Z,83.99
2022-08-27T13:50:31.806Z,83.31
2022-08-27T13:53:26.477Z,81.60
2022-08-27T13:55:54.883Z,80.73
2022-08-27T13:58:28.508Z,83.72
2022-08-27T14:01:07.073Z,79.90
2022-08-27T14:03:36.786Z,80.70
2022-08-27T14:06:03.680Z,81.60
2022-08-27T14:08:34.486Z,81.51
2022-08-27T14:11:08.023Z,84.28
2022-08-27T14:13:41.445Z,82.37
2022-08-27T14:16:24.098Z,79.35
2022-08-27T14:19:02.508Z,80.95
2022-08-27T14:21:29.792Z,83.48
2022-08-27T14:23:56.736Z,78.61
2022-08-27T14:26:23.581Z,80.99
2022-08-27T14:28:50.953Z,79.72
2022-08-27T14:31:18.318Z,80.75
2022-08-27T14:33:46.611Z,79.10
2022-08-27T14:36:13.868Z,79.78
2022-08-27T14:38:45.568Z,80.83
2022-08-27T14:41:12.306Z,79.97
2022-08-27T14:43:40.457Z,78.76
2022-08-27T14:46:11.477Z,77.07
2022-08-27T14:48:43.330Z,77.14
2022-08-27T14:51:24.588Z,78.18
2022-08-27T14:53:51.670Z,77.21
2022-08-27T14:56:19.625Z,76.46
2022-08-27T14:58:46.742Z,73.32
2022-08-27T15:01:14.627Z,74.49
2022-08-27T15:03:49.801Z,76.68
2022-08-27T15:06:18.255Z,75.52
2022-08-27T15:08:45.605Z,76.38
2022-08-27T15:11:23.387Z,73.68
2022-08-27T15:13:51.561Z,73.51
2022-08-27T15:16:30.078Z,71.65
2022-08-27T15:19:00.671Z,73.05
2022-08-27T15:21:30.435Z,73.74
2022-08-27T15:24:00.723Z,74.57
2022-08-27T15:26:27.376Z,77.23
2022-08-27T15:28:55.133Z,75.45
2022-08-27T15:31:21.923Z,76.71
2022-08-27T15:33:48.541Z,76.88
2022-08-27T15:36:15.208Z,78.01
2022-08-27T15:38:41.887Z,77.85
2022-08-27T15:41:10.329Z,75.99
2022-08-27T15:43:38.054Z,77.40
2022-08-27T15:46:05.420Z,78.29
2022-08-27T15:48:32.279Z,75.54
2022-08-27T15:51:07.531Z,74.84
2022-08-27T15:53:34.572Z,75.18
2022-08-27T15:56:03.916Z,74.92
2022-08-27T15:58:31.134Z,74.60
2022-08-27T16:01:09.190Z,74.90
2022-08-27T16:03:36.139Z,75.15
2022-08-27T16:06:03.861Z,75.52
2022-08-27T16:08:36.725Z,73.75
2022-08-27T16:11:08.366Z,72.44
2022-08-27T16:13:34.980Z,72.05
2022-08-27T16:16:02.434Z,69.85
2022-08-27T16:18:31.669Z,71.81
2022-08-27T16:21:00.148Z,70.45
2022-08-27T16:23:27.851Z,70.78
2022-08-27T16:25:55.958Z,70.09
2022-08-27T16:28:23.876Z,70.44
2022-08-27T16:30:52.331Z,71.72
2022-08-27T16:33:19.245Z,71.09
2022-08-27T16:35:46.403Z,69.62
2022-08-27T16:38:13.131Z,70.73
2022-08-27T16:40:48.220Z,69.92
2022-08-27T16:43:20.413Z,68.92
2022-08-27T16:45:49.034Z,68.52
2022-08-27T16:48:34.941Z,67.83
2022-08-27T16:51:03.210Z,67.63
2022-08-27T16:53:34.559Z,67.40
2022-08-27T16:56:01.760Z,67.12
2022-08-27T16:58:30.215Z,67.37
2022-08-27T17:01:02.701Z,67.31
2022-08-27T17:03:30.586Z,68.46
2022-08-27T17:05:57.769Z,66.78
2022-08-27T17:08:27.321Z,66.75
2022-08-27T17:10:55.452Z,68.67
2022-08-27T17:18:42.191Z,69.50
2022-08-27T17:21:08.744Z,70.83
2022-08-27T17:23:39.398Z,71.57
2022-08-27T17:26:09.208Z,73.61
2022-08-27T17:28:39.267Z,74.73
2022-08-27T17:31:07.548Z,73.62
2022-08-27T17:33:42.894Z,75.77
2022-08-27T17:36:10.378Z,77.53
2022-08-27T17:38:38.866Z,79.03
2022-08-27T17:41:16.233Z,79.31
2022-08-27T17:43:42.908Z,79.41
2022-08-27T17:46:09.745Z,80.48
2022-08-27T17:48:36.362Z,81.00
2022-08-27T17:51:04.038Z,80.75
2022-08-27T17:53:30.622Z,80.20
2022-08-27T17:55:57.157Z,80.37
2022-08-27T17:58:23.684Z,79.93
2022-08-27T18:00:51.262Z,79.41
2022-08-27T18:03:20.044Z,80.22
2022-08-27T18:05:48.027Z,79.88
2022-08-27T18:08:15.276Z,78.53
2022-08-27T18:10:43.483Z,79.51
2022-08-27T18:13:13.723Z,79.62
2022-08-27T18:15:42.138Z,81.45
2022-08-27T18:18:09.956Z,82.71
2022-08-27T18:20:37.480Z,81.16
2022-08-27T18:23:09.551Z,83.29
2022-08-27T18:25:38.578Z,82.85
2022-08-27T18:28:11.300Z,85.09
2022-08-27T18:30:43.360Z,85.43
2022-08-27T18:33:10.846Z,87.55
2022-08-27T18:35:37.974Z,87.95
2022-08-27T18:38:06.176Z,88.91
2022-08-27T18:40:38.667Z,90.93
2022-08-27T18:43:05.764Z,90.12
2022-08-27T18:45:34.594Z,92.18
2022-08-27T18:48:02.666Z,93.50
2022-08-27T18:50:29.247Z,93.19
2022-08-27T18:52:56.893Z,94.18
2022-08-27T18:55:27.982Z,93.37
2022-08-27T18:57:54.571Z,96.32
2022-08-27T19:00:21.533Z,94.43
2022-08-27T19:02:52.673Z,96.85
2022-08-27T19:05:24.242Z,98.15
2022-08-27T19:07:50.827Z,99.49
2022-08-27T19:10:18.276Z,99.70
2022-08-27T19:12:44.896Z,99.97
2022-08-27T19:15:12.224Z,99.75
2022-08-27T19:17:41.608Z,100.00
2022-08-27T19:20:08.394Z,98.25
2022-08-27T19:22:35.017Z,100.00
2022-08-27T19:25:02.150Z,98.57
2022-08-27T19:27:30.313Z,100.00
2022-08-27T19:29:57.062Z,100.00
2022-08-27T19:32:23.810Z,100.00
2022-08-27T19:34:50.374Z,100.00
2022-08-27T19:37:21.138Z,100.00
2022-08-27T19:39:47.703Z,100.00
2022-08-27T19:42:14.502Z,100.00
2022-08-27T19:44:41.258Z,100.00
2022-08-27T19:47:10.053Z,100.00
2022-08-27T19:49:37.103Z,100.00
2022-08-27T19:52:08.103Z,100.00
2022-08-27T19:54:43.128Z,100.00
2022-08-27T19:57:18.671Z,100.00
2022-08-27T19:59:45.407Z,100.00
2022-08-27T20:02:12.550Z,100.00
2022-08-27T20:04:56.050Z,100.00
2022-08-27T20:07:28.194Z,100.00
2022-08-27T20:09:54.753Z,100.00
2022-08-27T20:12:21.771Z,100.00
2022-08-27T20:14:48.339Z,100.00
2022-08-27T20:17:18.266Z,100.00
2022-08-27T20:19:45.373Z,100.00
2022-08-27T20:22:13.155Z,100.00
2022-08-27T20:24:39.753Z,100.00
2022-08-27T20:27:06.355Z,100.00
2022-08-27T20:29:33.533Z,100.00
2022-08-27T20:32:01.230Z,100.00
2022-08-27T20:34:29.561Z,99.18
2022-08-27T20:36:56.222Z,98.12
2022-08-27T20:39:22.889Z,97.51
2022-08-27T20:41:50.132Z,98.30
2022-08-27T20:44:17.028Z,98.57
2022-08-27T20:46:43.791Z,95.91
2022-08-27T20:49:15.642Z,94.38
2022-08-27T20:51:51.330Z,95.48
2022-08-27T20:54:28.759Z,95.87
2022-08-27T20:56:55.295Z,96.33
2022-08-27T20:59:40.737Z,95.62
2022-08-27T21:02:12.310Z,96.63
2022-08-27T21:04:42.312Z,97.49
2022-08-27T21:07:09.057Z,97.41
2022-08-27T21:09:35.684Z,97.52
2022-08-27T21:12:11.477Z,98.52
2022-08-27T21:14:38.181Z,99.92
2022-08-27T21:17:05.916Z,100.00
2022-08-27T21:19:35.163Z,100.00
2022-08-27T21:22:06.054Z,100.00
2022-08-27T21:24:33.855Z,100.00
2022-08-27T21:27:00.424Z,99.49
2022-08-27T21:29:27.052Z,99.57
2022-08-27T21:31:53.942Z,99.60
2022-08-27T21:34:20.681Z,100.00
2022-08-27T21:36:47.250Z,100.00
2022-08-27T21:39:13.836Z,100.00
2022-08-27T21:41:40.786Z,100.00
2022-08-27T21:44:07.367Z,100.00
2022-08-27T21:46:34.044Z,100.00
2022-08-27T21:49:00.649Z,100.00
2022-08-27T21:51:27.558Z,100.00
2022-08-27T21:53:54.175Z,100.00
2022-08-27T21:56:20.790Z,100.00
2022-08-27T21:58:47.402Z,100.00
2022-08-27T22:01:14.939Z,100.00
2022-08-27T22:03:45.278Z,100.00
2022-08-27T22:06:14.924Z,100.00
2022-08-27T22:08:42.480Z,100.00
2022-08-27T22:11:09.517Z,100.00
2022-08-27T22:13:36.404Z,99.44
2022-08-27T22:16:03.765Z,96.34
2022-08-27T22:18:30.906Z,95.86
2022-08-27T22:20:58.864Z,96.54
2022-08-27T22:23:25.962Z,96.76
2022-08-27T22:25:52.569Z,96.15
2022-08-27T22:28:19.414Z,95.83
2022-08-27T22:30:46.008Z,95.81
2022-08-27T22:33:13.412Z,96.48
2022-08-27T22:35:40.216Z,94.92
2022-08-27T22:38:07.239Z,93.60
2022-08-27T22:40:35.458Z,94.94
2022-08-27T22:43:02.576Z,96.01
2022-08-27T22:45:29.298Z,95.20
2022-08-27T22:47:55.862Z,95.24
2022-08-27T22:50:23.064Z,95.88
2022-08-27T22:52:49.909Z,95.94
2022-08-27T22:55:19.761Z,98.48
2022-08-27T22:57:51.461Z,98.38
2022-08-27T23:00:23.468Z,96.32
2022-08-27T23:02:50.073Z,97.99
2022-08-27T23:05:17.041Z,96.72
2022-08-27T23:07:44.815Z,95.59
2022-08-27T23:10:13.722Z,94.11
2022-08-27T23:12:40.332Z,93.85
2022-08-27T23:15:12.497Z,94.09
2022-08-27T23:17:39.035Z,94.36
2022-08-27T23:20:08.203Z,92.73
2022-08-27T23:22:35.629Z,93.19
2022-08-27T23:25:37.559Z,93.53
2022-08-27T23:28:10.221Z,90.63
2022-08-27T23:30:38.968Z,89.42
2022-08-27T23:33:05.594Z,88.14
2022-08-27T23:35:32.443Z,87.99
2022-08-27T23:37:59.177Z,88.33
2022-08-27T23:40:26.024Z,87.54
2022-08-27T23:42:53.103Z,86.25
2022-08-27T23:45:23.807Z,85.02
2022-08-27T23:47:50.543Z,84.61
2022-08-27T23:50:17.192Z,84.14
2022-08-27T23:52:43.949Z,84.61
2022-08-27T23:55:11.792Z,84.79
2022-08-27T23:57:38.479Z,86.94
